sensor_id;sensor_type;location;lat;lon;timestamp;P1;durP1;ratioP1;P2;durP2;ratioP2
79147;SDS011;68562;51.600;6.524;2023-03-23T00:00:00;3.2;;;2.3;;
79147;SDS011;68562;51.600;6.524;2023-03-23T00:05:00;4.5;;;2.3;;
79147;SDS011;68562;51.600;6.524;2023-03-23T00:10:00;4.9;;;2.2;;
79147;SDS011;68562;51.600;6.524;2023-03-23T00:15:00;2.8;;;2.2;;
79147;SDS011;68562;51.600;6.524;2023-03-23T00:20:00;5.4;;;2.3;;
79147;SDS011;68562;51.600;6.524;2023-03-23T00:25:00;4.5;;;2.2;;
79147;SDS011;68562;51.600;6.524;2023-03-23T00:30:00;3.7;;;2.1;;
79147;SDS011;68562;51.600;6.524;2023-03-23T00:35:00;2.8;;;2.1;;
79147;SDS011;68562;51.600;6.524;2023-03-23T00:40:00;3.6;;;2.0;;
79147;SDS011;68562;51.600;6.524;2023-03-23T00:45:00;3.2;;;1.9;;
79147;SDS011;68562;51.600;6.524;2023-03-23T00:50:00;4.0;;;2.3;;
79147;SDS011;68562;51.600;6.524;2023-03-23T00:55:00;3.2;;;2.4;;
79147;SDS011;68562;51.600;6.524;2023-03-23T01:00:00;2.8;;;2.4;;
79147;SDS011;68562;51.600;6.524;2023-03-23T01:05:00;5.3;;;2.2;;
79147;SDS011;68562;51.600;6.524;2023-03-23T01:10:00;3.9;;;1.9;;
79147;SDS011;68562;51.600;6.524;2023-03-23T01:15:00;3.3;;;2.0;;
79147;SDS011;68562;51.600;6.524;2023-03-23T01:20:00;5.2;;;2.5;;
79147;SDS011;68562;51.600;6.524;2023-03-23T01:25:00;4.2;;;2.4;;
79147;SDS011;68562;51.600;6.524;2023-03-23T01:30:00;3.9;;;2.3;;
79147;SDS011;68562;51.600;6.524;2023-03-23T01:35:00;4.6;;;2.2;;
79147;SDS011;68562;51.600;6.524;2023-03-23T01:40:00;6.3;;;2.6;;
79147;SDS011;68562;51.600;6.524;2023-03-23T01:50:00;4.7;;;2.3;;
79147;SDS011;68562;51.600;6.524;2023-03-23T01:55:00;5.3;;;2.5;;
79147;SDS011;68562;51.600;6.524;2023-03-23T02:00:01;4.2;;;1.9;;
79147;SDS011;68562;51.600;6.524;2023-03-23T02:05:01;4.2;;;2.1;;
79147;SDS011;68562;51.600;6.524;2023-03-23T02:10:00;4.3;;;2.6;;
79147;SDS011;68562;51.600;6.524;2023-03-23T02:15:00;3.2;;;2.5;;
79147;SDS011;68562;51.600;6.524;2023-03-23T02:20:05;4.3;;;2.5;;
79147;SDS011;68562;51.600;6.524;2023-03-23T02:25:05;3.9;;;1.9;;
79147;SDS011;68562;51.600;6.524;2023-03-23T02:30:04;2.9;;;2.3;;
79147;SDS011;68562;51.600;6.524;2023-03-23T02:35:00;4.9;;;2.7;;
79147;SDS011;68562;51.600;6.524;2023-03-23T02:40:02;4.4;;;2.1;;
79147;SDS011;68562;51.600;6.524;2023-03-23T02:45:02;3.6;;;2.5;;
79147;SDS011;68562;51.600;6.524;2023-03-23T02:50:00;4.4;;;2.5;;
79147;SDS011;68562;51.600;6.524;2023-03-23T02:55:00;3.5;;;2.3;;
79147;SDS011;68562;51.600;6.524;2023-03-23T03:00:00;4.0;;;2.6;;
79147;SDS011;68562;51.600;6.524;2023-03-23T03:05:01;4.7;;;2.4;;
79147;SDS011;68562;51.600;6.524;2023-03-23T03:10:01;5.2;;;2.4;;
79147;SDS011;68562;51.600;6.524;2023-03-23T03:15:02;3.5;;;2.3;;
79147;SDS011;68562;51.600;6.524;2023-03-23T03:20:01;3.6;;;2.5;;
79147;SDS011;68562;51.600;6.524;2023-03-23T03:25:00;4.5;;;2.4;;
79147;SDS011;68562;51.600;6.524;2023-03-23T03:30:01;3.5;;;2.5;;
79147;SDS011;68562;51.600;6.524;2023-03-23T03:35:00;3.8;;;2.6;;
79147;SDS011;68562;51.600;6.524;2023-03-23T03:40:00;3.1;;;2.3;;
79147;SDS011;68562;51.600;6.524;2023-03-23T03:45:00;3.9;;;2.1;;
79147;SDS011;68562;51.600;6.524;2023-03-23T03:50:00;4.1;;;2.4;;
79147;SDS011;68562;51.600;6.524;2023-03-23T03:55:00;3.3;;;2.7;;
79147;SDS011;68562;51.600;6.524;2023-03-23T04:00:00;3.3;;;2.4;;
79147;SDS011;68562;51.600;6.524;2023-03-23T04:05:00;2.5;;;1.9;;
79147;SDS011;68562;51.600;6.524;2023-03-23T04:10:02;5.7;;;2.3;;
79147;SDS011;68562;51.600;6.524;2023-03-23T04:15:00;3.4;;;2.2;;
79147;SDS011;68562;51.600;6.524;2023-03-23T04:20:00;2.7;;;1.7;;
79147;SDS011;68562;51.600;6.524;2023-03-23T04:25:00;3.1;;;2.2;;
79147;SDS011;68562;51.600;6.524;2023-03-23T04:30:00;3.2;;;2.2;;
79147;SDS011;68562;51.600;6.524;2023-03-23T04:35:00;3.8;;;2.5;;
79147;SDS011;68562;51.600;6.524;2023-03-23T04:40:00;2.9;;;2.0;;
79147;SDS011;68562;51.600;6.524;2023-03-23T04:45:00;3.8;;;2.1;;
79147;SDS011;68562;51.600;6.524;2023-03-23T04:50:00;2.8;;;1.9;;
79147;SDS011;68562;51.600;6.524;2023-03-23T04:55:00;3.2;;;2.1;;
79147;SDS011;68562;51.600;6.524;2023-03-23T05:00:00;3.2;;;2.2;;
79147;SDS011;68562;51.600;6.524;2023-03-23T05:05:00;2.8;;;1.9;;
79147;SDS011;68562;51.600;6.524;2023-03-23T05:10:00;2.4;;;2.0;;
79147;SDS011;68562;51.600;6.524;2023-03-23T05:15:00;3.9;;;2.6;;
79147;SDS011;68562;51.600;6.524;2023-03-23T05:20:00;3.4;;;1.9;;
79147;SDS011;68562;51.600;6.524;2023-03-23T05:25:00;4.1;;;2.2;;
79147;SDS011;68562;51.600;6.524;2023-03-23T05:30:00;2.8;;;2.4;;
79147;SDS011;68562;51.600;6.524;2023-03-23T05:35:00;2.1;;;1.6;;
79147;SDS011;68562;51.600;6.524;2023-03-23T05:40:00;3.1;;;2.2;;
79147;SDS011;68562;51.600;6.524;2023-03-23T05:45:00;4.6;;;2.5;;
79147;SDS011;68562;51.600;6.524;2023-03-23T05:50:00;3.1;;;1.8;;
79147;SDS011;68562;51.600;6.524;2023-03-23T05:55:00;2.5;;;1.9;;
79147;SDS011;68562;51.600;6.524;2023-03-23T06:00:00;3.4;;;2.1;;
79147;SDS011;68562;51.600;6.524;2023-03-23T06:05:00;1.8;;;1.6;;
79147;SDS011;68562;51.600;6.524;2023-03-23T06:10:00;2.6;;;1.7;;
79147;SDS011;68562;51.600;6.524;2023-03-23T06:15:00;3.0;;;2.1;;
79147;SDS011;68562;51.600;6.524;2023-03-23T06:20:00;4.5;;;2.2;;
79147;SDS011;68562;51.600;6.524;2023-03-23T06:25:00;3.1;;;1.6;;
79147;SDS011;68562;51.600;6.524;2023-03-23T06:30:00;3.1;;;1.7;;
79147;SDS011;68562;51.600;6.524;2023-03-23T06:35:00;2.7;;;1.6;;
79147;SDS011;68562;51.600;6.524;2023-03-23T06:40:00;4.9;;;2.0;;
79147;SDS011;68562;51.600;6.524;2023-03-23T06:45:00;6.4;;;1.8;;
79147;SDS011;68562;51.600;6.524;2023-03-23T06:50:00;3.0;;;2.1;;
79147;SDS011;68562;51.600;6.524;2023-03-23T06:55:00;4.6;;;1.7;;
79147;SDS011;68562;51.600;6.524;2023-03-23T07:00:00;2.9;;;1.6;;
79147;SDS011;68562;51.600;6.524;2023-03-23T07:05:00;4.9;;;1.8;;
79147;SDS011;68562;51.600;6.524;2023-03-23T07:10:00;5.1;;;1.7;;
79147;SDS011;68562;51.600;6.524;2023-03-23T07:15:00;4.4;;;1.8;;
79147;SDS011;68562;51.600;6.524;2023-03-23T07:20:00;3.2;;;1.5;;
79147;SDS011;68562;51.600;6.524;2023-03-23T07:25:00;6.1;;;1.7;;
79147;SDS011;68562;51.600;6.524;2023-03-23T07:30:00;3.8;;;1.5;;
79147;SDS011;68562;51.600;6.524;2023-03-23T07:35:00;5.2;;;1.8;;
79147;SDS011;68562;51.600;6.524;2023-03-23T07:40:00;7.2;;;1.5;;
79147;SDS011;68562;51.600;6.524;2023-03-23T07:45:00;3.1;;;1.3;;
79147;SDS011;68562;51.600;6.524;2023-03-23T07:50:00;5.6;;;1.9;;
79147;SDS011;68562;51.600;6.524;2023-03-23T07:55:00;3.7;;;1.7;;
79147;SDS011;68562;51.600;6.524;2023-03-23T08:00:00;2.6;;;1.4;;
79147;SDS011;68562;51.600;6.524;2023-03-23T08:05:00;4.7;;;1.3;;
79147;SDS011;68562;51.600;6.524;2023-03-23T08:10:00;3.0;;;1.5;;
79147;SDS011;68562;51.600;6.524;2023-03-23T08:15:00;3.8;;;1.9;;
79147;SDS011;68562;51.600;6.524;2023-03-23T08:25:00;4.6;;;1.5;;
79147;SDS011;68562;51.600;6.524;2023-03-23T08:30:00;5.9;;;2.3;;
79147;SDS011;68562;51.600;6.524;2023-03-23T08:35:00;5.7;;;2.0;;
79147;SDS011;68562;51.600;6.524;2023-03-23T08:40:00;4.4;;;1.6;;
79147;SDS011;68562;51.600;6.524;2023-03-23T08:45:00;4.7;;;1.6;;
79147;SDS011;68562;51.600;6.524;2023-03-23T08:50:00;6.1;;;2.1;;
79147;SDS011;68562;51.600;6.524;2023-03-23T08:55:00;8.7;;;2.4;;
79147;SDS011;68562;51.600;6.524;2023-03-23T09:00:00;3.0;;;1.1;;
79147;SDS011;68562;51.600;6.524;2023-03-23T09:05:00;4.7;;;1.5;;
79147;SDS011;68562;51.600;6.524;2023-03-23T09:10:00;2.6;;;1.0;;
79147;SDS011;68562;51.600;6.524;2023-03-23T09:15:00;4.6;;;1.0;;
79147;SDS011;68562;51.600;6.524;2023-03-23T09:20:00;4.1;;;1.1;;
79147;SDS011;68562;51.600;6.524;2023-03-23T09:25:00;2.9;;;1.3;;
79147;SDS011;68562;51.600;6.524;2023-03-23T09:30:00;3.8;;;1.1;;
79147;SDS011;68562;51.600;6.524;2023-03-23T09:35:00;1.5;;;1.3;;
79147;SDS011;68562;51.600;6.524;2023-03-23T09:40:00;2.1;;;1.0;;
79147;SDS011;68562;51.600;6.524;2023-03-23T09:45:05;4.2;;;0.9;;
79147;SDS011;68562;51.600;6.524;2023-03-23T09:50:02;3.9;;;1.0;;
79147;SDS011;68562;51.600;6.524;2023-03-23T09:55:00;5.4;;;1.3;;
79147;SDS011;68562;51.600;6.524;2023-03-23T10:00:03;2.5;;;0.9;;
79147;SDS011;68562;51.600;6.524;2023-03-23T10:05:03;4.4;;;0.8;;
79147;SDS011;68562;51.600;6.524;2023-03-23T10:10:00;3.8;;;1.0;;
79147;SDS011;68562;51.600;6.524;2023-03-23T10:15:03;4.3;;;1.0;;
79147;SDS011;68562;51.600;6.524;2023-03-23T10:20:03;2.9;;;0.9;;
79147;SDS011;68562;51.600;6.524;2023-03-23T10:25:03;4.0;;;1.1;;
79147;SDS011;68562;51.600;6.524;2023-03-23T10:30:01;3.5;;;1.3;;
79147;SDS011;68562;51.600;6.524;2023-03-23T10:35:01;3.3;;;1.0;;
79147;SDS011;68562;51.600;6.524;2023-03-23T10:40:00;1.8;;;1.0;;
79147;SDS011;68562;51.600;6.524;2023-03-23T10:45:11;2.2;;;0.9;;
79147;SDS011;68562;51.600;6.524;2023-03-23T10:50:00;1.7;;;0.8;;
79147;SDS011;68562;51.600;6.524;2023-03-23T10:55:01;3.4;;;1.7;;
79147;SDS011;68562;51.600;6.524;2023-03-23T11:00:02;2.5;;;1.5;;
79147;SDS011;68562;51.600;6.524;2023-03-23T11:05:01;4.1;;;1.4;;
79147;SDS011;68562;51.600;6.524;2023-03-23T11:10:05;5.5;;;2.0;;
79147;SDS011;68562;51.600;6.524;2023-03-23T11:15:03;1.2;;;0.9;;
79147;SDS011;68562;51.600;6.524;2023-03-23T11:20:09;2.7;;;1.0;;
79147;SDS011;68562;51.600;6.524;2023-03-23T11:25:01;1.8;;;0.9;;
79147;SDS011;68562;51.600;6.524;2023-03-23T11:30:01;1.8;;;1.1;;
79147;SDS011;68562;51.600;6.524;2023-03-23T11:35:00;2.5;;;0.9;;
79147;SDS011;68562;51.600;6.524;2023-03-23T11:40:01;2.5;;;1.1;;
79147;SDS011;68562;51.600;6.524;2023-03-23T11:45:07;3.0;;;1.2;;
79147;SDS011;68562;51.600;6.524;2023-03-23T11:50:03;2.1;;;0.7;;
79147;SDS011;68562;51.600;6.524;2023-03-23T11:55:00;1.9;;;0.9;;
79147;SDS011;68562;51.600;6.524;2023-03-23T12:00:00;1.7;;;0.9;;
79147;SDS011;68562;51.600;6.524;2023-03-23T12:10:02;1.7;;;1.2;;
79147;SDS011;68562;51.600;6.524;2023-03-23T12:15:02;1.9;;;1.1;;
79147;SDS011;68562;51.600;6.524;2023-03-23T12:25:04;2.4;;;1.2;;
79147;SDS011;68562;51.600;6.524;2023-03-23T12:30:02;1.4;;;1.0;;
79147;SDS011;68562;51.600;6.524;2023-03-23T12:35:02;3.0;;;1.1;;
79147;SDS011;68562;51.600;6.524;2023-03-23T12:40:03;2.6;;;1.6;;
79147;SDS011;68562;51.600;6.524;2023-03-23T12:45:02;2.4;;;1.2;;
79147;SDS011;68562;51.600;6.524;2023-03-23T12:50:01;1.4;;;1.2;;
79147;SDS011;68562;51.600;6.524;2023-03-23T12:55:01;1.6;;;1.2;;
79147;SDS011;68562;51.600;6.524;2023-03-23T13:00:03;3.5;;;1.6;;
79147;SDS011;68562;51.600;6.524;2023-03-23T13:05:02;2.7;;;1.2;;
79147;SDS011;68562;51.600;6.524;2023-03-23T13:10:02;5.2;;;1.8;;
79147;SDS011;68562;51.600;6.524;2023-03-23T13:15:02;3.1;;;1.5;;
79147;SDS011;68562;51.600;6.524;2023-03-23T13:20:08;2.9;;;1.6;;
79147;SDS011;68562;51.600;6.524;2023-03-23T13:25:00;3.5;;;1.8;;
79147;SDS011;68562;51.600;6.524;2023-03-23T13:30:00;3.0;;;1.7;;
79147;SDS011;68562;51.600;6.524;2023-03-23T13:35:00;3.3;;;1.8;;
79147;SDS011;68562;51.600;6.524;2023-03-23T13:40:13;8.9;;;1.8;;
79147;SDS011;68562;51.600;6.524;2023-03-23T13:45:18;5.6;;;1.8;;
79147;SDS011;68562;51.600;6.524;2023-03-23T13:50:01;2.5;;;1.7;;
79147;SDS011;68562;51.600;6.524;2023-03-23T13:55:08;4.4;;;2.1;;
79147;SDS011;68562;51.600;6.524;2023-03-23T14:00:09;4.2;;;1.9;;
79147;SDS011;68562;51.600;6.524;2023-03-23T14:05:08;5.6;;;2.0;;
79147;SDS011;68562;51.600;6.524;2023-03-23T14:10:04;3.7;;;1.8;;
79147;SDS011;68562;51.600;6.524;2023-03-23T14:15:01;5.4;;;2.2;;
79147;SDS011;68562;51.600;6.524;2023-03-23T14:20:00;5.0;;;2.2;;
79147;SDS011;68562;51.600;6.524;2023-03-23T14:25:00;4.3;;;2.6;;
79147;SDS011;68562;51.600;6.524;2023-03-23T14:30:00;4.0;;;1.6;;
79147;SDS011;68562;51.600;6.524;2023-03-23T14:35:04;4.0;;;1.7;;
79147;SDS011;68562;51.600;6.524;2023-03-23T14:40:00;3.1;;;1.7;;
79147;SDS011;68562;51.600;6.524;2023-03-23T14:45:00;4.6;;;2.0;;
79147;SDS011;68562;51.600;6.524;2023-03-23T14:50:01;3.6;;;1.9;;
79147;SDS011;68562;51.600;6.524;2023-03-23T14:55:10;2.5;;;1.4;;
79147;SDS011;68562;51.600;6.524;2023-03-23T15:00:00;2.6;;;2.0;;
79147;SDS011;68562;51.600;6.524;2023-03-23T15:05:02;3.9;;;1.7;;
79147;SDS011;68562;51.600;6.524;2023-03-23T15:10:00;6.9;;;1.6;;
79147;SDS011;68562;51.600;6.524;2023-03-23T15:15:01;6.0;;;1.7;;
79147;SDS011;68562;51.600;6.524;2023-03-23T15:20:07;4.5;;;1.8;;
79147;SDS011;68562;51.600;6.524;2023-03-23T15:25:02;3.2;;;1.6;;
79147;SDS011;68562;51.600;6.524;2023-03-23T15:30:11;5.0;;;2.0;;
79147;SDS011;68562;51.600;6.524;2023-03-23T15:35:02;4.0;;;1.7;;
79147;SDS011;68562;51.600;6.524;2023-03-23T15:40:00;4.5;;;2.0;;
79147;SDS011;68562;51.600;6.524;2023-03-23T15:45:05;2.5;;;1.4;;
79147;SDS011;68562;51.600;6.524;2023-03-23T15:50:03;3.0;;;1.1;;
79147;SDS011;68562;51.600;6.524;2023-03-23T15:55:00;4.9;;;1.5;;
79147;SDS011;68562;51.600;6.524;2023-03-23T16:00:00;6.7;;;1.8;;
79147;SDS011;68562;51.600;6.524;2023-03-23T16:05:00;3.5;;;2.2;;
79147;SDS011;68562;51.600;6.524;2023-03-23T16:10:00;3.5;;;1.6;;
79147;SDS011;68562;51.600;6.524;2023-03-23T16:15:00;7.3;;;2.2;;
79147;SDS011;68562;51.600;6.524;2023-03-23T16:20:00;5.3;;;1.8;;
79147;SDS011;68562;51.600;6.524;2023-03-23T16:25:00;3.5;;;1.5;;
79147;SDS011;68562;51.600;6.524;2023-03-23T16:30:00;3.6;;;1.7;;
79147;SDS011;68562;51.600;6.524;2023-03-23T16:35:00;5.0;;;1.6;;
79147;SDS011;68562;51.600;6.524;2023-03-23T16:40:00;3.9;;;1.4;;
79147;SDS011;68562;51.600;6.524;2023-03-23T16:45:00;4.5;;;1.6;;
79147;SDS011;68562;51.600;6.524;2023-03-23T16:50:00;6.7;;;1.9;;
79147;SDS011;68562;51.600;6.524;2023-03-23T16:55:00;3.8;;;2.0;;
79147;SDS011;68562;51.600;6.524;2023-03-23T17:00:00;4.6;;;2.1;;
79147;SDS011;68562;51.600;6.524;2023-03-23T17:05:00;4.8;;;1.8;;
79147;SDS011;68562;51.600;6.524;2023-03-23T17:10:00;5.9;;;1.8;;
79147;SDS011;68562;51.600;6.524;2023-03-23T17:15:00;8.6;;;2.7;;
79147;SDS011;68562;51.600;6.524;2023-03-23T17:20:00;4.7;;;1.9;;
79147;SDS011;68562;51.600;6.524;2023-03-23T17:25:00;4.2;;;1.7;;
79147;SDS011;68562;51.600;6.524;2023-03-23T17:30:00;5.3;;;1.8;;
79147;SDS011;68562;51.600;6.524;2023-03-23T17:35:00;2.6;;;1.6;;
79147;SDS011;68562;51.600;6.524;2023-03-23T17:40:00;4.5;;;1.8;;
79147;SDS011;68562;51.600;6.524;2023-03-23T17:45:00;8.5;;;2.2;;
79147;SDS011;68562;51.600;6.524;2023-03-23T17:50:00;3.9;;;1.6;;
79147;SDS011;68562;51.600;6.524;2023-03-23T17:55:00;5.5;;;2.0;;
79147;SDS011;68562;51.600;6.524;2023-03-23T18:00:00;4.8;;;1.9;;
79147;SDS011;68562;51.600;6.524;2023-03-23T18:05:00;8.6;;;2.2;;
79147;SDS011;68562;51.600;6.524;2023-03-23T18:10:00;5.0;;;1.7;;
79147;SDS011;68562;51.600;6.524;2023-03-23T18:15:00;6.7;;;2.3;;
79147;SDS011;68562;51.600;6.524;2023-03-23T18:20:00;3.2;;;1.7;;
79147;SDS011;68562;51.600;6.524;2023-03-23T18:25:00;4.3;;;2.1;;
79147;SDS011;68562;51.600;6.524;2023-03-23T18:30:00;8.9;;;2.5;;
79147;SDS011;68562;51.600;6.524;2023-03-23T18:35:00;5.5;;;2.1;;
79147;SDS011;68562;51.600;6.524;2023-03-23T18:40:00;6.2;;;2.1;;
79147;SDS011;68562;51.600;6.524;2023-03-23T18:45:00;4.7;;;1.8;;
79147;SDS011;68562;51.600;6.524;2023-03-23T18:50:00;4.9;;;1.8;;
79147;SDS011;68562;51.600;6.524;2023-03-23T18:55:00;7.2;;;2.3;;
79147;SDS011;68562;51.600;6.524;2023-03-23T19:00:00;6.4;;;2.1;;
79147;SDS011;68562;51.600;6.524;2023-03-23T19:05:00;4.7;;;2.2;;
79147;SDS011;68562;51.600;6.524;2023-03-23T19:10:00;6.3;;;1.8;;
79147;SDS011;68562;51.600;6.524;2023-03-23T19:15:00;7.6;;;2.6;;
79147;SDS011;68562;51.600;6.524;2023-03-23T19:20:00;7.8;;;2.8;;
79147;SDS011;68562;51.600;6.524;2023-03-23T19:25:00;3.4;;;1.5;;
79147;SDS011;68562;51.600;6.524;2023-03-23T19:30:00;5.5;;;2.4;;
79147;SDS011;68562;51.600;6.524;2023-03-23T19:35:00;3.6;;;1.7;;
79147;SDS011;68562;51.600;6.524;2023-03-23T19:40:00;6.2;;;2.1;;
79147;SDS011;68562;51.600;6.524;2023-03-23T19:45:00;4.4;;;2.0;;
79147;SDS011;68562;51.600;6.524;2023-03-23T19:50:00;4.5;;;1.7;;
79147;SDS011;68562;51.600;6.524;2023-03-23T19:55:00;3.8;;;2.0;;
79147;SDS011;68562;51.600;6.524;2023-03-23T20:00:00;4.3;;;1.9;;
79147;SDS011;68562;51.600;6.524;2023-03-23T20:05:00;5.1;;;1.8;;
79147;SDS011;68562;51.600;6.524;2023-03-23T20:15:00;4.6;;;2.1;;
79147;SDS011;68562;51.600;6.524;2023-03-23T20:20:00;3.3;;;1.6;;
79147;SDS011;68562;51.600;6.524;2023-03-23T20:25:00;8.0;;;2.2;;
79147;SDS011;68562;51.600;6.524;2023-03-23T20:30:00;5.2;;;1.9;;
79147;SDS011;68562;51.600;6.524;2023-03-23T20:35:00;5.8;;;1.8;;
79147;SDS011;68562;51.600;6.524;2023-03-23T20:40:00;6.5;;;2.0;;
79147;SDS011;68562;51.600;6.524;2023-03-23T20:45:00;5.5;;;2.2;;
79147;SDS011;68562;51.600;6.524;2023-03-23T20:50:00;5.7;;;1.9;;
79147;SDS011;68562;51.600;6.524;2023-03-23T20:55:00;5.7;;;1.9;;
79147;SDS011;68562;51.600;6.524;2023-03-23T21:00:00;3.9;;;1.9;;
79147;SDS011;68562;51.600;6.524;2023-03-23T21:05:00;3.8;;;1.9;;
79147;SDS011;68562;51.600;6.524;2023-03-23T21:10:00;6.8;;;2.4;;
79147;SDS011;68562;51.600;6.524;2023-03-23T21:15:00;5.1;;;2.0;;
79147;SDS011;68562;51.600;6.524;2023-03-23T21:20:00;4.4;;;2.0;;
79147;SDS011;68562;51.600;6.524;2023-03-23T21:25:00;3.1;;;1.7;;
79147;SDS011;68562;51.600;6.524;2023-03-23T21:30:00;5.0;;;2.4;;
79147;SDS011;68562;51.600;6.524;2023-03-23T21:35:00;4.3;;;1.7;;
79147;SDS011;68562;51.600;6.524;2023-03-23T21:40:00;3.8;;;1.8;;
79147;SDS011;68562;51.600;6.524;2023-03-23T21:45:00;3.0;;;1.8;;
79147;SDS011;68562;51.600;6.524;2023-03-23T21:50:00;3.8;;;1.8;;
79147;SDS011;68562;51.600;6.524;2023-03-23T21:55:00;6.3;;;2.1;;
79147;SDS011;68562;51.600;6.524;2023-03-23T22:00:00;6.4;;;2.3;;
79147;SDS011;68562;51.600;6.524;2023-03-23T22:05:00;4.5;;;1.6;;
79147;SDS011;68562;51.600;6.524;2023-03-23T22:10:00;3.9;;;2.5;;
79147;SDS011;68562;51.600;6.524;2023-03-23T22:15:00;4.3;;;1.8;;
79147;SDS011;68562;51.600;6.524;2023-03-23T22:20:00;3.8;;;2.0;;
79147;SDS011;68562;51.600;6.524;2023-03-23T22:25:00;3.8;;;1.5;;
79147;SDS011;68562;51.600;6.524;2023-03-23T22:30:00;3.3;;;2.0;;
79147;SDS011;68562;51.600;6.524;2023-03-23T22:35:00;4.2;;;1.7;;
79147;SDS011;68562;51.600;6.524;2023-03-23T22:40:00;3.6;;;1.7;;
79147;SDS011;68562;51.600;6.524;2023-03-23T22:45:00;3.2;;;1.8;;
79147;SDS011;68562;51.600;6.524;2023-03-23T22:50:00;5.5;;;1.7;;
79147;SDS011;68562;51.600;6.524;2023-03-23T22:55:00;2.7;;;1.3;;
79147;SDS011;68562;51.600;6.524;2023-03-23T23:00:00;3.5;;;1.5;;
79147;SDS011;68562;51.600;6.524;2023-03-23T23:05:00;4.0;;;2.0;;
79147;SDS011;68562;51.600;6.524;2023-03-23T23:10:00;6.2;;;1.8;;
79147;SDS011;68562;51.600;6.524;2023-03-23T23:15:00;4.3;;;2.0;;
79147;SDS011;68562;51.600;6.524;2023-03-23T23:20:00;3.7;;;1.9;;
79147;SDS011;68562;51.600;6.524;2023-03-23T23:25:00;2.6;;;1.4;;
79147;SDS011;68562;51.600;6.524;2023-03-23T23:30:00;4.7;;;2.2;;
79147;SDS011;68562;51.600;6.524;2023-03-23T23:35:00;2.8;;;1.7;;
79147;SDS011;68562;51.600;6.524;2023-03-23T23:40:00;3.8;;;1.9;;
79147;SDS011;68562;51.600;6.524;2023-03-23T23:45:00;4.5;;;2.1;;
79147;SDS011;68562;51.600;6.524;2023-03-23T23:50:00;2.9;;;2.0;;
79147;SDS011;68562;51.600;6.524;2023-03-23T23:55:00;4.7;;;2.1;;
